Time;durP1;ratioP1;P1;durP2;ratioP2;P2;SDS_P1;SDS_P2;PMS_P1;PMS_P2;Temp;Humidity;BMP_temperature;BMP_pressure;BME280_temperature;BME280_humidity;BME280_pressure;Samples;Min_cycle;Max_cycle;Signal;HPM_P1;HPM_P2
2023/12/07 00:01:14;;;;;;;11.90;5.73;;;;;;;-145.69;64.80;52379.03;5107435;28;20198;-81
2023/12/07 00:03:40;;;;;;;14.60;5.93;;;;;;;-145.69;64.09;52400.81;5104324;28;20217;-81
2023/12/07 00:06:07;;;;;;;10.30;5.60;;;;;;;-145.69;64.03;52384.97;5101652;28;20205;-81
2023/12/07 00:08:34;;;;;;;16.13;6.27;;;;;;;-145.69;63.56;52355.28;5105633;28;20202;-81
2023/12/07 00:11:00;;;;;;;11.53;6.10;;;;;;;-145.69;63.68;52375.06;5097766;28;20198;-81
2023/12/07 00:13:27;;;;;;;14.60;6.80;;;;;;;-145.69;64.75;52375.06;5095725;28;20229;-81
2023/12/07 00:15:54;;;;;;;13.50;6.60;;;;;;;-145.69;64.61;52404.78;5095152;28;20230;-81
2023/12/07 00:18:22;;;;;;;17.40;7.40;;;;;;;-145.69;65.02;52347.34;5094755;28;20198;-80
2023/12/07 00:20:48;;;;;;;13.07;6.43;;;;;;;-145.69;64.90;52369.13;5093506;28;20194;-81
2023/12/07 00:23:15;;;;;;;14.93;7.47;;;;;;;-145.69;64.36;52384.97;5094026;28;20606;-80
2023/12/07 00:25:42;;;;;;;17.50;7.77;;;;;;;-145.69;64.69;52394.88;5094089;28;20284;-80
2023/12/07 00:28:08;;;;;;;12.30;6.17;;;;;;;-145.69;64.19;52377.06;5093894;28;20552;-81
2023/12/07 00:30:35;;;;;;;14.73;6.80;;;;;;;-145.69;63.86;52396.84;5093556;28;20201;-80
2023/12/07 00:33:02;;;;;;;13.53;7.23;;;;;;;-145.69;63.90;52377.06;5093350;28;20200;-80
2023/12/07 00:35:30;;;;;;;15.10;6.77;;;;;;;-145.69;63.91;52388.94;5093456;28;20294;-80
2023/12/07 00:37:56;;;;;;;12.27;6.53;;;;;;;-145.69;63.86;52390.91;5093544;28;20198;-80
2023/12/07 00:40:23;;;;;;;11.47;5.90;;;;;;;-145.69;64.02;52416.66;5093364;28;20648;-80
2023/12/07 00:42:50;;;;;;;11.27;5.53;;;;;;;-145.69;63.59;52373.09;5093269;28;20281;-80
2023/12/07 00:45:16;;;;;;;12.77;5.60;;;;;;;-145.69;63.69;52373.09;5092911;28;20194;-80
2023/12/07 00:47:43;;;;;;;12.50;6.17;;;;;;;-145.69;64.17;52394.88;5093197;28;20548;-80
2023/12/07 00:50:14;;;;;;;14.50;6.60;;;;;;;-145.69;64.03;52392.91;5093912;28;20610;-81
2023/12/07 00:52:42;;;;;;;13.33;6.43;;;;;;;-145.69;64.42;52369.13;5093410;28;20284;-80
2023/12/07 00:55:11;;;;;;;18.43;6.27;;;;;;;-145.69;64.09;52384.97;5093409;28;20206;-80
2023/12/07 00:57:37;;;;;;;15.33;6.70;;;;;;;-145.69;63.69;52383.00;5093208;28;20237;-79
2023/12/07 01:00:06;;;;;;;18.90;6.57;;;;;;;-145.69;63.34;52384.97;5084036;28;20209;-81
2023/12/07 01:02:32;;;;;;;13.73;6.07;;;;;;;-145.69;63.38;52400.81;5092440;28;20544;-80
2023/12/07 01:04:59;;;;;;;11.23;5.53;;;;;;;-145.69;63.58;52424.59;5092553;28;20285;-79
2023/12/07 01:07:24;;;;;;;11.67;6.03;;;;;;;-145.69;63.40;52402.78;5092544;28;20198;-80
2023/12/07 01:09:52;;;;;;;12.10;6.07;;;;;;;-145.69;63.59;52388.94;5092707;28;20209;-79
2023/12/07 01:12:19;;;;;;;12.83;6.00;;;;;;;-145.69;63.29;52412.69;5092458;28;20229;-80
2023/12/07 01:14:45;;;;;;;11.63;5.50;;;;;;;-145.69;63.00;52388.94;5092634;28;20198;-80
2023/12/07 01:17:12;;;;;;;11.13;5.50;;;;;;;-145.69;62.84;52379.03;5092730;28;20678;-80
2023/12/07 01:19:38;;;;;;;9.67;5.20;;;;;;;-145.69;63.39;52400.81;5092912;28;20237;-80
2023/12/07 01:22:05;;;;;;;12.13;4.90;;;;;;;-145.69;62.94;52392.91;5092597;28;20229;-80
2023/12/07 01:24:32;;;;;;;10.07;4.93;;;;;;;-145.69;62.86;52424.59;5093114;28;20209;-80
2023/12/07 01:26:59;;;;;;;11.47;5.67;;;;;;;-145.69;62.97;52379.03;5093271;28;20197;-80
2023/12/07 01:29:26;;;;;;;14.20;6.73;;;;;;;-145.69;63.21;52398.84;5092748;28;20198;-80
2023/12/07 01:31:55;;;;;;;11.43;6.03;;;;;;;-145.69;63.79;52365.16;5092672;28;20198;-80
2023/12/07 01:34:22;;;;;;;12.90;6.43;;;;;;;-145.69;64.04;52408.75;5093048;28;20198;-80
2023/12/07 01:36:49;;;;;;;12.17;6.20;;;;;;;-145.69;63.39;52408.75;5092579;28;20573;-80
2023/12/07 01:39:15;;;;;;;12.03;5.80;;;;;;;-145.69;63.61;52412.69;5092729;28;20205;-80
2023/12/07 01:41:43;;;;;;;13.20;6.20;;;;;;;-145.69;64.49;52392.91;5092820;28;20245;-80
2023/12/07 01:44:10;;;;;;;13.63;6.23;;;;;;;-145.69;63.82;52392.91;5092821;28;20290;-80
2023/12/07 01:46:37;;;;;;;14.60;6.80;;;;;;;-145.69;63.51;52384.97;5092553;28;20701;-80
2023/12/07 01:49:04;;;;;;;14.43;6.77;;;;;;;-145.69;63.44;52384.97;5092609;28;20259;-80
2023/12/07 01:51:31;;;;;;;11.23;5.70;;;;;;;-145.69;63.11;52357.25;5092573;28;20208;-80
2023/12/07 01:53:59;;;;;;;9.30;5.73;;;;;;;-145.69;63.04;52416.66;5092322;28;20297;-80
2023/12/07 01:56:26;;;;;;;16.10;5.83;;;;;;;-145.69;62.93;52400.81;5092280;28;20267;-80
2023/12/07 01:58:53;;;;;;;11.83;4.87;;;;;;;-145.69;62.89;52383.00;5092865;28;20287;-80
2023/12/07 02:01:23;;;;;;;10.93;4.97;;;;;;;-145.69;63.23;52420.63;5092527;28;20568;-80
2023/12/07 02:03:50;;;;;;;13.07;5.53;;;;;;;-145.69;63.04;52424.59;5092555;28;20206;-80
2023/12/07 02:06:20;;;;;;;9.23;4.73;;;;;;;-145.69;63.10;52416.66;5092230;28;20613;-80
2023/12/07 02:08:46;;;;;;;10.37;5.20;;;;;;;-145.69;63.63;52414.69;5092366;28;20241;-80
2023/12/07 02:11:13;;;;;;;13.10;4.93;;;;;;;-145.69;63.28;52396.84;5092597;28;20202;-80
2023/12/07 02:13:42;;;;;;;10.43;5.23;;;;;;;-145.69;63.07;52416.66;5092045;28;20268;-80
2023/12/07 02:16:23;;;;;;;11.87;5.47;;;;;;;-145.69;63.11;52404.78;5092342;28;20244;-80
2023/12/07 02:18:57;;;;;;;11.43;4.90;;;;;;;-145.69;62.92;52432.50;5092433;28;20202;-80
2023/12/07 02:21:36;;;;;;;12.20;6.40;;;;;;;-145.69;63.07;52398.84;5095075;28;20201;-80
2023/12/07 02:24:04;;;;;;;13.37;5.47;;;;;;;-145.69;63.26;52404.78;5095907;28;20610;-80
2023/12/07 02:26:33;;;;;;;11.80;5.23;;;;;;;-145.69;62.88;52384.97;5096496;28;20522;-80
2023/12/07 02:29:00;;;;;;;11.57;5.03;;;;;;;-145.69;62.54;52454.28;5095822;28;20705;-80
2023/12/07 02:31:28;;;;;;;10.17;5.27;;;;;;;-145.69;62.87;52400.81;5095684;28;20208;-79
2023/12/07 02:33:55;;;;;;;11.87;5.73;;;;;;;-145.69;62.62;52416.66;5095534;28;20241;-80
2023/12/07 02:36:25;;;;;;;9.63;4.90;;;;;;;-145.69;62.24;52400.81;5095723;28;20584;-79
2023/12/07 02:38:52;;;;;;;12.10;5.60;;;;;;;-145.69;62.07;52394.88;5096079;28;20198;-79
2023/12/07 02:41:20;;;;;;;15.07;5.83;;;;;;;-145.69;61.79;52383.00;5095771;28;20201;-79
2023/12/07 02:43:57;;;;;;;15.23;4.97;;;;;;;-145.69;61.43;52414.69;5095568;28;20197;-80
2023/12/07 02:46:24;;;;;;;9.70;5.30;;;;;;;-145.69;61.67;52440.44;5095452;28;20735;-80
2023/12/07 02:48:50;;;;;;;11.13;5.00;;;;;;;-145.69;61.09;52402.78;5095582;28;20652;-80
2023/12/07 02:51:17;;;;;;;10.53;5.37;;;;;;;-145.69;61.43;52377.06;5095619;28;20198;-80
2023/12/07 02:53:43;;;;;;;13.13;5.10;;;;;;;-145.69;61.41;52418.63;5095308;28;20202;-79
2023/12/07 02:56:10;;;;;;;9.77;5.27;;;;;;;-145.69;61.51;52422.59;5095258;28;20198;-79
2023/12/07 02:58:36;;;;;;;14.83;4.87;;;;;;;-145.69;60.59;52420.63;5095375;28;20202;-80
2023/12/07 03:01:04;;;;;;;10.37;4.90;;;;;;;-145.69;61.09;52404.78;5094630;28;20653;-79
2023/12/07 03:03:31;;;;;;;11.17;5.03;;;;;;;-145.69;60.99;52408.75;5095350;28;20198;-79
2023/12/07 03:05:58;;;;;;;13.77;5.53;;;;;;;-145.69;60.59;52444.38;5091764;28;20294;-79
2023/12/07 03:08:24;;;;;;;9.33;4.70;;;;;;;-145.69;60.58;52416.66;5094931;28;20604;-79
2023/12/07 03:10:53;;;;;;;9.13;4.93;;;;;;;-145.69;60.41;52412.69;5094721;28;20256;-80
2023/12/07 03:13:20;;;;;;;10.83;5.03;;;;;;;-145.69;61.01;52396.84;5094600;28;20225;-80
2023/12/07 03:15:46;;;;;;;10.03;5.07;;;;;;;-145.69;61.73;52400.81;5094727;28;20195;-79
2023/12/07 03:18:14;;;;;;;13.40;6.00;;;;;;;-145.69;61.35;52388.94;5094944;28;20576;-80
2023/12/07 03:20:41;;;;;;;8.30;4.50;;;;;;;-145.69;60.97;52430.53;5094693;28;20201;-80
2023/12/07 03:23:08;;;;;;;9.73;5.33;;;;;;;-145.69;61.25;52398.84;5094968;28;20638;-80
2023/12/07 03:25:34;;;;;;;9.73;5.10;;;;;;;-145.69;61.07;52383.00;5094659;28;20190;-80
2023/12/07 03:28:01;;;;;;;10.10;4.60;;;;;;;-145.69;61.40;52444.38;5094639;28;20566;-80
2023/12/07 03:30:27;;;;;;;10.17;4.97;;;;;;;-145.69;61.01;52388.94;5094403;28;20212;-80
2023/12/07 03:32:53;;;;;;;7.60;3.83;;;;;;;-145.69;60.89;52400.81;5095178;28;20202;-80
2023/12/07 03:35:21;;;;;;;9.07;4.83;;;;;;;-145.69;60.52;52394.88;5094388;28;20221;-80
2023/12/07 03:37:48;;;;;;;9.17;3.97;;;;;;;-145.69;60.69;52416.66;5094550;28;20225;-80
2023/12/07 03:40:14;;;;;;;8.53;4.17;;;;;;;-145.69;60.24;52412.69;5094494;28;20225;-80
2023/12/07 03:42:41;;;;;;;8.13;3.83;;;;;;;-145.69;60.24;52408.75;5094594;28;20213;-80
2023/12/07 03:45:08;;;;;;;10.73;4.20;;;;;;;-145.69;60.83;52448.34;5094333;28;20198;-79
2023/12/07 03:47:35;;;;;;;8.70;4.80;;;;;;;-145.69;60.83;52392.91;5094656;28;20209;-80
2023/12/07 03:50:01;;;;;;;6.00;3.73;;;;;;;-145.69;60.67;52394.88;5094185;28;20641;-80
2023/12/07 03:52:29;;;;;;;8.77;4.10;;;;;;;-145.69;61.31;52430.53;5094555;28;20644;-79
2023/12/07 03:54:56;;;;;;;11.53;4.93;;;;;;;-145.69;61.30;52408.75;5094102;28;20196;-79
2023/12/07 03:57:22;;;;;;;7.97;4.33;;;;;;;-145.69;61.46;52420.63;5093807;28;20253;-79
2023/12/07 03:59:49;;;;;;;9.30;4.83;;;;;;;-145.69;61.16;52418.63;5093839;28;20198;-80
2023/12/07 04:02:21;;;;;;;7.27;4.13;;;;;;;-145.69;60.79;52440.44;5094421;28;20259;-80
2023/12/07 04:04:48;;;;;;;8.90;4.20;;;;;;;-145.69;61.26;52406.75;5093794;28;20712;-79
2023/12/07 04:07:14;;;;;;;7.57;4.47;;;;;;;-145.69;60.61;52402.78;5094542;28;20204;-79
2023/12/07 04:09:43;;;;;;;11.10;4.00;;;;;;;-145.69;60.61;52406.75;5093910;28;20197;-80
2023/12/07 04:12:09;;;;;;;11.90;4.23;;;;;;;-145.69;60.84;52418.63;5094264;28;20547;-80
2023/12/07 04:14:36;;;;;;;8.03;4.20;;;;;;;-145.69;61.09;52394.88;5093821;28;20205;-80
2023/12/07 04:17:02;;;;;;;12.77;4.40;;;;;;;-145.69;61.09;52416.66;5093800;28;20237;-80
2023/12/07 04:19:29;;;;;;;13.53;4.33;;;;;;;-145.69;61.68;52424.59;5093880;28;20232;-79
2023/12/07 04:21:55;;;;;;;8.87;4.80;;;;;;;-145.69;61.49;52412.69;5093873;28;20209;-79
2023/12/07 04:24:22;;;;;;;8.57;4.30;;;;;;;-145.69;61.39;52420.63;5093110;28;20198;-78
2023/12/07 04:26:50;;;;;;;9.07;4.60;;;;;;;-145.69;62.81;52444.38;5093844;28;20202;-80
2023/12/07 04:29:16;;;;;;;9.60;4.50;;;;;;;-145.69;62.62;52424.59;5093684;28;20201;-80
2023/12/07 04:31:44;;;;;;;10.55;5.60;;;;;;;-145.69;63.38;52408.75;5092824;28;20433;-80
2023/12/07 04:34:10;;;;;;;9.60;5.00;;;;;;;-145.69;62.24;52410.72;5093434;28;20641;-80
2023/12/07 04:36:37;;;;;;;13.00;4.50;;;;;;;-145.69;62.10;52416.66;5093302;28;20760;-80
2023/12/07 04:39:03;;;;;;;8.40;4.33;;;;;;;-145.69;61.78;52418.63;5092877;28;20645;-80
2023/12/07 04:41:30;;;;;;;9.67;4.67;;;;;;;-145.69;63.01;52412.69;5093488;28;20211;-79
2023/12/07 04:43:59;;;;;;;10.43;4.57;;;;;;;-145.69;62.74;52384.97;5093153;28;20285;-80
2023/12/07 04:46:25;;;;;;;7.47;4.73;;;;;;;-145.69;62.95;52408.75;5093272;28;20631;-80
2023/12/07 04:48:52;;;;;;;8.50;4.47;;;;;;;-145.69;63.45;52420.63;5093404;28;20209;-80
2023/12/07 04:51:18;;;;;;;9.47;3.73;;;;;;;-145.69;62.56;52404.78;5093294;28;20293;-80
2023/12/07 04:53:44;;;;;;;13.00;5.10;;;;;;;-145.69;63.17;52359.22;5093329;28;20215;-79
2023/12/07 04:56:11;;;;;;;7.87;4.47;;;;;;;-145.69;62.53;52394.88;5093135;28;20194;-80
2023/12/07 04:58:38;;;;;;;9.40;4.43;;;;;;;-145.69;62.19;52428.53;5076764;28;20257;-80
2023/12/07 05:01:06;;;;;;;6.70;4.00;;;;;;;-145.69;61.91;52412.69;5085501;28;20198;-80
2023/12/07 05:03:35;;;;;;;6.67;3.50;;;;;;;-145.69;61.57;52390.91;5093036;28;20186;-80
2023/12/07 05:06:01;;;;;;;6.78;3.70;;;;;;;-145.69;61.38;52434.47;5092716;28;20432;-80
2023/12/07 05:08:31;;;;;;;6.97;3.93;;;;;;;-145.69;61.04;52420.63;5092958;28;20557;-80
2023/12/07 05:10:57;;;;;;;5.70;2.90;;;;;;;-145.69;61.83;52406.75;5092990;28;20649;-80
2023/12/07 05:13:26;;;;;;;6.93;3.50;;;;;;;-145.69;61.04;52420.63;5092142;28;20233;-80
2023/12/07 05:15:55;;;;;;;5.43;2.90;;;;;;;-145.69;61.08;52444.38;5092555;28;20198;-79
2023/12/07 05:18:23;;;;;;;7.80;3.50;;;;;;;-145.69;61.89;52408.75;5092750;28;20303;-80
2023/12/07 05:20:49;;;;;;;6.43;3.47;;;;;;;-145.69;62.04;52424.59;5093158;28;20205;-80
2023/12/07 05:23:16;;;;;;;7.97;3.73;;;;;;;-145.69;62.20;52414.69;5092752;28;20657;-80
2023/12/07 05:25:42;;;;;;;5.93;3.60;;;;;;;-145.69;61.17;52398.84;5092932;28;20198;-81
2023/12/07 05:28:12;;;;;;;10.03;4.17;;;;;;;-145.69;61.79;52369.13;5092902;28;20672;-80
2023/12/07 05:30:38;;;;;;;6.13;3.13;;;;;;;-145.69;62.07;52412.69;5092500;28;20193;-80
2023/12/07 05:33:05;;;;;;;6.60;3.60;;;;;;;-145.69;62.64;52432.50;5092723;28;20206;-80
2023/12/07 05:35:33;;;;;;;5.90;3.20;;;;;;;-145.69;62.24;52412.69;5092403;28;20243;-80
2023/12/07 05:38:00;;;;;;;7.20;3.83;;;;;;;-145.69;62.37;52418.63;5092699;28;20300;-80
2023/12/07 05:40:27;;;;;;;6.50;3.20;;;;;;;-145.69;62.05;52416.66;5092656;28;20198;-80
2023/12/07 05:42:53;;;;;;;5.57;3.10;;;;;;;-145.69;61.42;52438.44;5092857;28;20587;-80
2023/12/07 05:45:20;;;;;;;6.80;3.60;;;;;;;-145.69;61.69;52444.38;5092690;28;20198;-80
2023/12/07 05:47:46;;;;;;;12.80;4.10;;;;;;;-145.69;62.30;52444.38;5092347;28;20205;-80
2023/12/07 05:50:13;;;;;;;11.20;4.13;;;;;;;-145.69;62.76;52418.63;5093055;28;20198;-80
2023/12/07 05:52:41;;;;;;;10.77;4.47;;;;;;;-145.69;62.28;52424.59;5092483;28;20706;-80
2023/12/07 05:55:08;;;;;;;12.00;3.90;;;;;;;-145.69;61.92;52404.78;5093408;28;20205;-80
2023/12/07 05:57:34;;;;;;;10.80;4.07;;;;;;;-145.69;62.10;52420.63;5096486;28;20234;-80
2023/12/07 06:00:03;;;;;;;7.33;3.30;;;;;;;-145.69;61.92;52412.69;5096430;28;20198;-80
2023/12/07 06:02:31;;;;;;;6.13;3.07;;;;;;;-145.69;62.05;52414.69;5096660;28;20198;-80
2023/12/07 06:04:58;;;;;;;7.33;3.70;;;;;;;-145.69;62.04;52402.78;5096700;28;20225;-80
2023/12/07 06:07:24;;;;;;;6.20;3.20;;;;;;;-145.69;61.78;52408.75;5096264;28;20550;-80
2023/12/07 06:09:53;;;;;;;7.70;3.23;;;;;;;-145.69;62.01;52404.78;5096471;28;20683;-80
2023/12/07 06:12:23;;;;;;;8.30;3.23;;;;;;;-145.69;61.43;52400.81;5096117;28;20284;-80
2023/12/07 06:14:50;;;;;;;7.27;3.20;;;;;;;-145.69;62.40;52410.72;5096279;28;20202;-80
2023/12/07 06:17:17;;;;;;;5.50;3.20;;;;;;;-145.69;62.29;52392.91;5095939;28;20251;-80
2023/12/07 06:19:44;;;;;;;5.00;2.90;;;;;;;-145.69;62.29;52388.94;5096457;28;20209;-80
2023/12/07 06:22:11;;;;;;;6.07;3.20;;;;;;;-145.69;63.11;52424.59;5096198;28;20205;-79
2023/12/07 06:24:37;;;;;;;6.33;3.20;;;;;;;-145.69;61.92;52379.03;5095849;28;20230;-80
2023/12/07 06:27:06;;;;;;;9.07;3.03;;;;;;;-145.69;62.12;52424.59;5096054;28;20307;-80
2023/12/07 06:29:33;;;;;;;6.40;3.23;;;;;;;-145.69;62.92;52408.75;5095979;28;20323;-79
2023/12/07 06:32:00;;;;;;;6.93;3.20;;;;;;;-145.69;63.11;52444.38;5094281;28;20200;-80
2023/12/07 06:34:27;;;;;;;7.57;3.40;;;;;;;-145.69;63.14;52400.81;5096037;28;20226;-80
2023/12/07 06:36:54;;;;;;;9.50;4.13;;;;;;;-145.69;63.76;52416.66;5095998;28;20199;-79
2023/12/07 06:39:26;;;;;;;9.70;3.87;;;;;;;-145.69;62.43;52412.69;5095664;28;20230;-80
2023/12/07 06:41:54;;;;;;;10.07;4.07;;;;;;;-145.69;62.20;52398.84;5095488;28;20710;-80
2023/12/07 06:44:22;;;;;;;13.53;5.07;;;;;;;-145.69;62.67;52440.44;5095383;28;20194;-80
2023/12/07 06:46:49;;;;;;;6.67;3.53;;;;;;;-145.69;62.89;52422.59;5095772;28;20210;-80
2023/12/07 06:49:15;;;;;;;8.10;3.87;;;;;;;-145.69;62.49;52428.53;5091960;28;20198;-80
2023/12/07 06:51:42;;;;;;;10.60;4.17;;;;;;;-145.69;61.87;52410.72;5095675;28;20198;-80
2023/12/07 06:54:08;;;;;;;6.93;3.60;;;;;;;-145.69;62.04;52392.91;5095533;28;20198;-80
2023/12/07 06:56:38;;;;;;;10.17;2.83;;;;;;;-145.69;63.01;52398.84;5095486;28;20209;-80
2023/12/07 06:59:04;;;;;;;8.30;3.60;;;;;;;-145.69;62.40;52400.81;5095106;28;20233;-80
2023/12/07 07:01:32;;;;;;;6.20;3.77;;;;;;;-145.69;62.29;52418.63;5095278;28;20284;-79
2023/12/07 07:03:59;;;;;;;5.67;3.30;;;;;;;-145.69;61.84;52432.50;5095371;28;20194;-80
2023/12/07 07:06:25;;;;;;;7.67;3.07;;;;;;;-145.69;62.51;52416.66;5094825;28;20672;-79
2023/12/07 07:08:52;;;;;;;7.13;3.10;;;;;;;-145.69;62.12;52448.34;5094910;28;20190;-80
2023/12/07 07:11:18;;;;;;;11.10;3.20;;;;;;;-145.69;62.01;52424.59;5095170;28;20198;-80
2023/12/07 07:13:45;;;;;;;6.27;2.77;;;;;;;-145.69;62.14;52400.81;5094826;28;20244;-80
2023/12/07 07:16:11;;;;;;;7.10;3.30;;;;;;;-145.69;62.29;52416.66;5094985;28;20573;-80
2023/12/07 07:18:40;;;;;;;6.40;2.90;;;;;;;-145.69;62.74;52386.97;5094811;28;20232;-80
2023/12/07 07:21:07;;;;;;;4.17;2.93;;;;;;;-145.69;62.81;52406.75;5094836;28;20202;-80
2023/12/07 07:23:34;;;;;;;4.53;2.77;;;;;;;-145.69;62.21;52410.72;5094167;28;20201;-80
2023/12/07 07:26:08;;;;;;;5.07;3.00;;;;;;;-145.69;61.89;52420.63;5095085;28;20194;-81
2023/12/07 07:28:34;;;;;;;5.57;2.70;;;;;;;-145.69;61.69;52388.94;5094390;28;20210;-79
2023/12/07 07:31:02;;;;;;;4.73;2.60;;;;;;;-145.69;62.02;52412.69;5094369;28;20719;-80
2023/12/07 07:33:29;;;;;;;5.07;2.70;;;;;;;-145.69;61.92;52402.78;5094894;28;20205;-80
2023/12/07 07:35:56;;;;;;;5.43;2.73;;;;;;;-145.69;62.50;52418.63;5094542;28;20549;-80
2023/12/07 07:38:23;;;;;;;4.47;2.50;;;;;;;-145.69;62.03;52390.91;5094482;28;20229;-80
2023/12/07 07:40:50;;;;;;;6.60;2.43;;;;;;;-145.69;61.91;52390.91;5094798;28;20198;-80
2023/12/07 07:43:17;;;;;;;6.37;2.60;;;;;;;-145.69;61.40;52420.63;5094554;28;20645;-80
2023/12/07 07:45:45;;;;;;;5.43;2.73;;;;;;;-145.69;61.92;52396.84;5094812;28;20206;-80
2023/12/07 07:48:12;;;;;;;7.67;2.93;;;;;;;-145.69;61.84;52408.75;5094412;28;20194;-80
2023/12/07 07:50:38;;;;;;;4.87;2.50;;;;;;;-145.69;62.24;52384.97;5094427;28;20194;-80
2023/12/07 07:53:06;;;;;;;6.90;2.83;;;;;;;-145.69;62.08;52388.94;5094450;28;20198;-80
2023/12/07 07:55:33;;;;;;;10.87;4.30;;;;;;;-145.69;61.77;52381.00;5094352;28;20653;-80
2023/12/07 07:57:59;;;;;;;12.60;5.03;;;;;;;-145.69;62.18;52422.59;5094114;28;20220;-79
2023/12/07 08:00:28;;;;;;;13.30;4.70;;;;;;;-145.69;62.17;52430.53;5094231;28;20204;-79
2023/12/07 08:02:54;;;;;;;5.57;3.20;;;;;;;-145.69;62.31;52383.00;5093849;28;20201;-80
2023/12/07 08:05:21;;;;;;;5.33;3.30;;;;;;;-145.69;62.37;52384.97;5094092;28;20213;-80
2023/12/07 08:07:47;;;;;;;5.43;2.70;;;;;;;-145.69;62.63;52412.69;5093996;28;20216;-79
2023/12/07 08:10:15;;;;;;;4.70;2.43;;;;;;;-145.69;62.64;52404.78;5093642;28;20690;-80
2023/12/07 08:12:42;;;;;;;4.97;2.63;;;;;;;-145.69;62.51;52404.78;5093797;28;20260;-80
2023/12/07 08:15:10;;;;;;;5.10;2.70;;;;;;;-145.69;62.32;52410.72;5092813;28;20194;-80
2023/12/07 08:17:38;;;;;;;6.77;2.90;;;;;;;-145.69;62.75;52412.69;5092317;28;20622;-80
2023/12/07 08:20:06;;;;;;;5.83;2.67;;;;;;;-145.69;62.25;52400.81;5093377;28;20225;-80
2023/12/07 08:22:33;;;;;;;4.30;3.00;;;;;;;-145.69;61.51;52402.78;5094083;28;20202;-80
2023/12/07 08:25:00;;;;;;;4.77;3.00;;;;;;;-145.69;62.06;52365.16;5093860;28;20213;-81
2023/12/07 08:27:29;;;;;;;6.57;3.00;;;;;;;-145.69;61.90;52402.78;5093631;28;20233;-80
2023/12/07 08:29:58;;;;;;;5.23;3.27;;;;;;;-145.69;62.05;52390.91;5093607;28;20190;-80
2023/12/07 08:32:25;;;;;;;6.30;3.30;;;;;;;-145.69;62.23;52384.97;5093250;28;20197;-80
2023/12/07 08:34:52;;;;;;;7.27;3.20;;;;;;;-145.69;61.71;52379.03;5093837;28;20259;-79
2023/12/07 08:37:18;;;;;;;4.93;2.67;;;;;;;-145.69;62.42;52400.81;5093481;28;20675;-80
2023/12/07 08:39:45;;;;;;;7.37;3.07;;;;;;;-145.69;62.47;52377.06;5093428;28;20229;-80
2023/12/07 08:42:12;;;;;;;6.10;3.53;;;;;;;-145.69;63.13;52404.78;5093087;28;20432;-79
2023/12/07 08:44:40;;;;;;;7.93;3.63;;;;;;;-145.69;62.72;52381.00;5093727;28;20198;-80
2023/12/07 08:47:07;;;;;;;5.03;2.87;;;;;;;-145.69;62.41;52383.00;5093762;28;20199;-79
2023/12/07 08:49:34;;;;;;;7.97;3.47;;;;;;;-145.69;62.32;52404.78;5093876;28;20206;-79
2023/12/07 08:52:00;;;;;;;7.07;3.83;;;;;;;-145.69;62.14;52398.84;5092977;28;20205;-79
2023/12/07 08:54:27;;;;;;;6.23;3.97;;;;;;;-145.69;62.47;52388.94;5094491;28;20649;-79
2023/12/07 08:56:53;;;;;;;6.30;3.57;;;;;;;-145.69;62.44;52386.97;5093095;28;20194;-79
2023/12/07 08:59:20;;;;;;;9.00;3.93;;;;;;;-145.69;62.37;52420.63;5093066;28;20222;-80
2023/12/07 09:01:48;;;;;;;4.97;3.37;;;;;;;-145.69;62.64;52379.03;5093462;28;20198;-79
2023/12/07 09:04:14;;;;;;;4.93;3.23;;;;;;;-145.69;62.23;52361.22;5093180;28;20197;-79
2023/12/07 09:06:41;;;;;;;7.50;3.13;;;;;;;-145.69;61.60;52377.06;5092807;28;20198;-79
2023/12/07 09:09:07;;;;;;;8.33;3.93;;;;;;;-145.69;62.01;52388.94;5093329;28;20209;-79
2023/12/07 09:11:34;;;;;;;7.03;3.10;;;;;;;-145.69;62.35;52365.16;5094415;28;20198;-78
2023/12/07 09:14:03;;;;;;;6.27;3.50;;;;;;;-145.69;62.21;52341.41;5095668;28;20233;-80
2023/12/07 09:16:44;;;;;;;5.40;3.63;;;;;;;-145.69;62.44;52386.97;5098188;28;20669;-80
2023/12/07 09:19:13;;;;;;;7.67;3.53;;;;;;;-145.69;62.34;52400.81;5102039;28;20222;-81
2023/12/07 09:21:42;;;;;;;7.63;4.00;;;;;;;-145.69;62.69;52412.69;5109276;28;20194;-80
2023/12/07 09:24:11;;;;;;;7.60;3.83;;;;;;;-145.69;62.74;52388.94;5109911;28;20205;-80
2023/12/07 09:26:41;;;;;;;5.57;3.93;;;;;;;-145.69;63.08;52390.91;5108025;28;20202;-80
2023/12/07 09:29:11;;;;;;;7.63;4.00;;;;;;;-145.69;62.82;52400.81;5110881;28;20284;-80
2023/12/07 09:31:40;;;;;;;7.37;4.30;;;;;;;-145.69;62.76;52377.06;5114052;28;20208;-81
2023/12/07 09:34:17;;;;;;;7.13;3.97;;;;;;;-145.69;62.03;52388.94;5112656;28;20713;-80
2023/12/07 09:36:45;;;;;;;8.47;3.90;;;;;;;-145.69;62.25;52394.88;5114623;28;20201;-81
2023/12/07 09:39:22;;;;;;;7.27;3.40;;;;;;;-145.69;61.73;52375.06;5114802;28;20221;-80
2023/12/07 09:41:49;;;;;;;8.90;4.07;;;;;;;-145.69;61.08;52418.63;5114789;28;20684;-81
2023/12/07 09:44:16;;;;;;;5.40;3.53;;;;;;;-145.69;61.08;52377.06;5114394;28;20641;-80
2023/12/07 09:46:43;;;;;;;7.67;3.57;;;;;;;-145.69;61.33;52400.81;5114106;28;20221;-80
2023/12/07 09:49:12;;;;;;;9.27;3.70;;;;;;;-145.69;60.81;52357.25;5114584;28;20204;-81
2023/12/07 09:51:39;;;;;;;7.97;3.93;;;;;;;-145.69;60.27;52377.06;5114074;28;20265;-80
2023/12/07 09:54:13;;;;;;;6.10;3.20;;;;;;;-145.69;60.16;52414.69;5113734;28;20269;-80
2023/12/07 09:56:40;;;;;;;5.40;3.40;;;;;;;-145.69;59.34;52386.97;5106550;28;20182;-80
2023/12/07 09:59:10;;;;;;;11.63;3.43;;;;;;;-145.69;58.57;52345.38;5109685;28;20230;-80
2023/12/07 10:01:39;;;;;;;4.83;3.00;;;;;;;-145.69;57.98;52361.22;5106228;28;20198;-80
2023/12/07 10:04:25;;;;;;;4.77;2.70;;;;;;;-145.69;58.48;52392.91;5109447;28;20190;-80
2023/12/07 10:06:57;;;;;;;5.70;3.17;;;;;;;-145.69;59.61;52349.31;5110663;28;20201;-80
2023/12/07 10:09:35;;;;;;;7.47;3.30;;;;;;;-145.69;58.51;52381.00;5111187;28;20592;-80
2023/12/07 10:12:07;;;;;;;8.17;3.13;;;;;;;-145.69;57.39;52377.06;5114808;28;20202;-80
2023/12/07 10:14:34;;;;;;;5.43;2.63;;;;;;;-145.69;57.23;52388.94;5113666;28;20244;-80
2023/12/07 10:17:01;;;;;;;6.93;3.17;;;;;;;-145.69;57.50;52377.06;5114141;28;20245;-80
2023/12/07 10:19:30;;;;;;;6.50;3.23;;;;;;;-145.69;57.45;52410.72;5111703;28;20294;-80
2023/12/07 10:21:57;;;;;;;7.20;2.80;;;;;;;-145.69;56.37;52381.00;5111738;28;20292;-80
2023/12/07 10:24:26;;;;;;;4.97;2.70;;;;;;;-145.69;56.47;52363.19;5114983;28;20548;-80
2023/12/07 10:27:15;;;;;;;5.87;2.80;;;;;;;-145.69;56.45;52375.06;5116175;28;20194;-80
2023/12/07 10:29:47;;;;;;;4.77;2.80;;;;;;;-145.69;56.00;52353.28;5120460;28;20198;-81
2023/12/07 10:32:18;;;;;;;5.73;2.40;;;;;;;-145.69;56.25;52367.16;5119560;28;20242;-80
2023/12/07 10:34:48;;;;;;;7.80;2.67;;;;;;;-145.69;53.88;52361.22;5118476;28;20208;-80
2023/12/07 10:37:18;;;;;;;3.63;2.20;;;;;;;-145.69;55.71;52373.09;5119531;28;20174;-81
2023/12/07 10:39:46;;;;;;;4.50;2.30;;;;;;;-145.69;54.56;52347.34;5118220;28;20213;-80
2023/12/07 10:42:24;;;;;;;8.60;2.50;;;;;;;-145.69;54.71;52384.97;5118715;28;20225;-80
2023/12/07 10:44:54;;;;;;;8.50;2.20;;;;;;;-145.69;52.98;52371.13;5113943;28;20266;-81
2023/12/07 10:47:22;;;;;;;8.57;2.33;;;;;;;-145.69;52.92;52373.09;5118789;28;20246;-80
2023/12/07 10:50:01;;;;;;;4.27;1.93;;;;;;;-145.69;52.24;52361.22;5119296;28;20222;-81
2023/12/07 10:52:32;;;;;;;2.97;1.90;;;;;;;-145.69;52.97;52373.09;5103607;28;20208;-81
2023/12/07 10:55:04;;;;;;;4.27;2.00;;;;;;;-145.69;50.67;52357.25;5110854;28;20261;-81
2023/12/07 10:57:38;;;;;;;5.03;2.47;;;;;;;-145.69;50.72;52367.16;5113634;28;20220;-80
2023/12/07 11:00:10;;;;;;;2.47;1.80;;;;;;;-145.69;50.24;52361.22;5111178;28;20308;-81
2023/12/07 11:02:39;;;;;;;3.07;2.10;;;;;;;-145.69;51.43;52377.06;5109546;28;20190;-81
2023/12/07 11:05:07;;;;;;;4.67;2.20;;;;;;;-145.69;51.49;52337.44;5115812;28;20190;-81
2023/12/07 11:07:56;;;;;;;6.20;2.20;;;;;;;-145.69;49.87;52363.19;5111988;28;20229;-81
2023/12/07 11:10:30;;;;;;;3.33;2.13;;;;;;;-145.69;49.45;52365.16;5090171;28;20221;-81
2023/12/07 11:13:09;;;;;;;4.07;2.10;;;;;;;-145.69;49.91;52351.31;5091560;28;20225;-81
2023/12/07 11:15:36;;;;;;;2.77;2.00;;;;;;;-145.69;50.08;52341.41;5106129;28;20198;-81
2023/12/07 11:18:04;;;;;;;3.50;1.97;;;;;;;-145.69;48.64;52367.16;5104599;28;20237;-81